Time;durP1;ratioP1;P1;durP2;ratioP2;P2;SDS_P1;SDS_P2;PMS_P1;PMS_P2;Temp;Humidity;BMP_temperature;BMP_pressure;BME280_temperature;BME280_humidity;BME280_pressure;Samples;Min_cycle;Max_cycle;Signal;HPM_P1;HPM_P2
2023/03/28 00:01:13;;;;;;;7.53;3.83;;;;;;;-0.54;100.00;96917.53;6215193;23;20012;-81
2023/03/28 00:03:41;;;;;;;8.50;3.53;;;;;;;-0.57;100.00;96912.50;6240297;23;20414;-81
2023/03/28 00:06:17;;;;;;;6.97;3.73;;;;;;;-0.52;100.00;96916.53;6240122;23;20012;-82
2023/03/28 00:08:46;;;;;;;10.40;4.20;;;;;;;-0.48;100.00;96917.22;6240258;23;20415;-81
2023/03/28 00:11:18;;;;;;;8.93;3.80;;;;;;;-0.53;100.00;96916.63;6215110;23;20492;-81
2023/03/28 00:13:52;;;;;;;7.60;3.63;;;;;;;-0.68;100.00;96928.53;6215609;23;20423;-81
2023/03/28 00:16:18;;;;;;;7.90;4.00;;;;;;;-0.63;100.00;96926.56;6215443;23;20415;-81
2023/03/28 00:18:43;;;;;;;6.70;3.23;;;;;;;-0.71;100.00;96923.50;6216235;23;20411;-81
2023/03/28 00:21:24;;;;;;;11.47;3.43;;;;;;;-0.59;100.00;96940.16;6217143;23;20426;-81
2023/03/28 00:23:55;;;;;;;9.40;4.30;;;;;;;-0.62;100.00;96935.16;6216440;23;20046;-81
2023/03/28 00:26:23;;;;;;;6.97;3.37;;;;;;;-0.69;100.00;96936.34;6250791;23;20426;-81
2023/03/28 00:28:50;;;;;;;7.17;3.57;;;;;;;-0.77;100.00;96947.03;6215048;23;20408;-81
2023/03/28 00:31:26;;;;;;;12.27;3.83;;;;;;;-0.80;100.00;96942.03;6214896;23;20419;-81
2023/03/28 00:33:53;;;;;;;7.20;3.27;;;;;;;-0.78;100.00;96948.78;6214772;23;20426;-81
2023/03/28 00:36:22;;;;;;;11.27;3.90;;;;;;;-0.85;100.00;96949.16;6215205;23;20419;-81
2023/03/28 00:38:52;;;;;;;7.60;3.57;;;;;;;-0.84;100.00;96949.09;6214909;23;20918;-81
2023/03/28 00:41:22;;;;;;;10.00;3.63;;;;;;;-0.89;100.00;96956.19;6213630;23;21087;-81
2023/03/28 00:43:51;;;;;;;10.10;3.77;;;;;;;-0.90;100.00;96953.72;6215154;23;20562;-81
2023/03/28 00:46:40;;;;;;;9.03;4.23;;;;;;;-0.84;100.00;96959.41;6214631;23;20896;-82
2023/03/28 00:49:14;;;;;;;5.90;3.13;;;;;;;-0.82;100.00;96957.59;6239296;23;21281;-81
2023/03/28 00:51:46;;;;;;;;;;;;;;;-0.89;100.00;96958.78;6239126;23;20431;-81
2023/03/28 00:54:16;;;;;;;8.07;3.23;;;;;;;-0.94;100.00;96965.88;6213657;23;19929;-81
2023/03/28 00:56:46;;;;;;;9.10;3.83;;;;;;;-1.03;100.00;96971.50;6213507;23;20427;-81
2023/03/28 00:59:17;;;;;;;9.13;3.77;;;;;;;-0.98;100.00;96970.34;6210879;23;20414;-81
2023/03/28 01:01:44;;;;;;;7.67;3.80;;;;;;;-1.03;100.00;96971.50;6210684;23;20427;-81
2023/03/28 01:04:11;;;;;;;6.87;3.33;;;;;;;-1.06;100.00;96967.31;6212546;23;20424;-81
2023/03/28 01:06:44;;;;;;;11.47;3.70;;;;;;;-1.08;100.00;96970.84;6212699;23;20419;-81
2023/03/28 01:09:13;;;;;;;9.07;3.70;;;;;;;-1.13;100.00;96973.66;6214947;23;20419;-81
2023/03/28 01:11:45;;;;;;;6.73;3.80;;;;;;;-1.10;100.00;96975.28;6214993;23;20419;-82
2023/03/28 01:14:20;;;;;;;8.97;4.33;;;;;;;-1.09;100.00;96984.69;6215131;23;20425;-81
2023/03/28 01:16:46;;;;;;;10.00;3.73;;;;;;;-1.07;100.00;96980.28;6213747;23;20417;-81
2023/03/28 01:19:35;;;;;;;11.30;6.03;;;;;;;-1.11;100.00;96976.16;6209854;23;20502;-82
2023/03/28 01:22:25;;;;;;;8.47;4.67;;;;;;;-1.15;100.00;96987.53;6233688;23;20443;-81
2023/03/28 01:25:27;;;;;;;10.23;4.33;;;;;;;-1.16;100.00;96988.44;6208723;23;20488;-81
2023/03/28 01:28:29;;;;;;;8.20;3.90;;;;;;;-1.13;100.00;96989.16;6184335;23;20463;-81
2023/03/28 01:31:32;;;;;;;8.47;3.83;;;;;;;-1.09;100.00;96990.66;6184342;23;20481;-81
2023/03/28 01:34:54;;;;;;;11.10;5.03;;;;;;;-1.09;100.00;96992.41;6226106;23;21267;-81
2023/03/28 01:37:22;;;;;;;10.63;4.37;;;;;;;-1.15;100.00;96993.53;6183613;23;20416;-81
2023/03/28 01:40:27;;;;;;;10.57;4.40;;;;;;;-1.18;100.00;96996.25;6208909;23;20454;-81
2023/03/28 01:43:25;;;;;;;14.10;4.77;;;;;;;-1.21;100.00;96998.94;6185664;23;20986;-81
2023/03/28 01:45:57;;;;;;;8.30;4.00;;;;;;;-1.20;100.00;97009.22;6184301;23;20423;-81
2023/03/28 01:48:37;;;;;;;6.33;3.60;;;;;;;-1.15;100.00;97003.00;6209331;23;20487;-81
2023/03/28 01:51:07;;;;;;;10.37;4.13;;;;;;;-1.17;100.00;97004.81;6207478;23;20447;-81
2023/03/28 01:54:01;;;;;;;7.00;3.87;;;;;;;-1.23;100.00;97008.53;6210291;23;20391;-81
2023/03/28 01:57:05;;;;;;;11.13;4.77;;;;;;;-1.30;100.00;97005.38;6234782;23;20424;-82
2023/03/28 02:00:01;;;;;;;13.17;4.57;;;;;;;-1.23;100.00;97003.38;6094894;23;20433;-81
2023/03/28 02:03:12;;;;;;;10.70;4.73;;;;;;;-1.18;100.00;97001.41;6236795;23;20407;-81
2023/03/28 02:05:50;;;;;;;10.97;4.43;;;;;;;-1.25;100.00;96997.44;6189250;23;20468;-82
2023/03/28 02:08:20;;;;;;;8.07;4.73;;;;;;;-1.30;100.00;97007.97;6222283;23;20752;-82
2023/03/28 02:11:05;;;;;;;11.87;5.20;;;;;;;-1.36;100.00;97003.06;6212311;23;20416;-82
2023/03/28 02:14:04;;;;;;;8.20;4.30;;;;;;;-1.38;100.00;97002.28;6189423;23;20424;-81
2023/03/28 02:17:03;;;;;;;4.65;2.55;;;;;;;-1.30;100.00;97002.78;6176083;23;20435;-81
2023/03/28 02:19:57;;;;;;;9.47;4.53;;;;;;;-1.35;100.00;97001.31;6212505;23;20051;-81
2023/03/28 02:22:52;;;;;;;8.80;4.03;;;;;;;-1.46;100.00;97012.94;6221399;23;20447;-82
2023/03/28 02:25:50;;;;;;;7.73;3.77;;;;;;;-1.47;100.00;97007.88;6162713;23;20503;-81
2023/03/28 02:28:44;;;;;;;6.90;4.00;;;;;;;-1.45;100.00;97016.34;6200129;23;21012;-81
2023/03/28 02:31:31;;;;;;;9.57;4.53;;;;;;;-1.44;100.00;97013.72;6196056;23;20428;-82
2023/03/28 02:34:00;;;;;;;9.03;4.10;;;;;;;-1.40;100.00;97014.44;6211969;23;20408;-81
2023/03/28 02:36:34;;;;;;;6.70;4.17;;;;;;;-1.42;100.00;97017.06;6187093;23;20423;-81
2023/03/28 02:39:30;;;;;;;9.03;4.63;;;;;;;-1.37;100.00;97013.47;6187371;23;20502;-81
2023/03/28 02:42:29;;;;;;;10.17;4.43;;;;;;;-1.48;100.00;97016.47;6236512;23;20348;-81
2023/03/28 02:45:01;;;;;;;8.23;3.83;;;;;;;-1.38;100.00;97004.84;6212495;23;20395;-81
2023/03/28 02:47:26;;;;;;;10.90;4.30;;;;;;;-1.44;100.00;97010.31;6186631;23;20930;-81
2023/03/28 02:50:17;;;;;;;7.60;4.07;;;;;;;-1.44;100.00;97000.00;6186324;23;20419;-81
2023/03/28 02:53:04;;;;;;;8.50;4.27;;;;;;;-1.43;100.00;96999.91;6209317;23;20020;-81
2023/03/28 02:55:53;;;;;;;11.43;4.47;;;;;;;-1.45;100.00;97011.19;6181848;23;20493;-81
2023/03/28 02:59:00;;;;;;;9.80;3.57;;;;;;;-1.53;100.00;97013.28;6233639;23;20391;-81
2023/03/28 03:01:29;;;;;;;9.17;4.33;;;;;;;-1.52;100.00;97012.38;6215168;23;20415;-81
2023/03/28 03:03:56;;;;;;;7.27;3.63;;;;;;;-1.59;100.00;97019.53;6208922;23;20432;-81
2023/03/28 03:06:22;;;;;;;11.67;4.33;;;;;;;-1.59;100.00;97024.69;6209559;23;20749;-81
2023/03/28 03:08:48;;;;;;;8.90;3.83;;;;;;;-1.57;100.00;97022.06;6208049;23;20458;-81
2023/03/28 03:11:14;;;;;;;10.30;5.00;;;;;;;-1.60;100.00;97028.19;6207858;23;20017;-81
2023/03/28 03:13:42;;;;;;;9.33;4.03;;;;;;;-1.60;100.00;97024.78;6209188;23;20016;-81
2023/03/28 03:16:07;;;;;;;7.43;3.90;;;;;;;-1.63;100.00;97025.72;6208699;23;20418;-82
2023/03/28 03:18:46;;;;;;;10.00;4.37;;;;;;;-1.72;100.00;97026.13;6208951;23;20502;-81
2023/03/28 03:21:11;;;;;;;6.43;3.83;;;;;;;-1.77;100.00;97025.47;6208064;23;20420;-81
2023/03/28 03:23:40;;;;;;;10.40;3.63;;;;;;;-1.82;100.00;97017.91;6233818;23;20432;-82
2023/03/28 03:26:08;;;;;;;9.37;4.17;;;;;;;-1.76;100.00;97022.81;6209310;23;20478;-81
2023/03/28 03:28:40;;;;;;;10.53;4.03;;;;;;;-1.72;100.00;97016.63;6208393;23;20016;-81
2023/03/28 03:31:06;;;;;;;9.70;3.57;;;;;;;-1.72;100.00;97014.06;6184485;23;20410;-82
2023/03/28 03:33:40;;;;;;;6.67;3.60;;;;;;;-1.61;100.00;97020.50;6235057;23;20367;-81
2023/03/28 03:36:08;;;;;;;9.77;4.10;;;;;;;-1.62;100.00;97018.81;6210808;23;20420;-81
2023/03/28 03:38:35;;;;;;;9.83;3.63;;;;;;;-1.76;100.00;97017.66;6209957;23;20497;-81
2023/03/28 03:41:01;;;;;;;10.93;3.37;;;;;;;-1.73;100.00;97025.28;6210351;23;20403;-81
2023/03/28 03:43:27;;;;;;;9.17;3.80;;;;;;;-1.74;100.00;97026.19;6237814;23;20424;-81
2023/03/28 03:45:55;;;;;;;7.87;3.43;;;;;;;-1.79;100.00;97020.38;6212967;23;20419;-81
2023/03/28 03:48:21;;;;;;;8.90;3.27;;;;;;;-1.80;100.00;97023.03;6218162;23;20008;-81
2023/03/28 03:50:47;;;;;;;7.87;3.80;;;;;;;-1.84;100.00;97019.75;6220582;23;20473;-83
2023/03/28 03:53:15;;;;;;;10.70;4.07;;;;;;;-1.82;100.00;97025.66;6184573;23;20473;-81
2023/03/28 03:55:48;;;;;;;13.20;3.65;;;;;;;-1.84;100.00;97018.91;6210435;23;20400;-82
2023/03/28 03:58:14;;;;;;;7.53;3.93;;;;;;;-1.87;100.00;97019.88;6235951;23;20024;-82
2023/03/28 04:00:43;;;;;;;9.70;3.93;;;;;;;-1.89;100.00;97019.09;6210953;23;20666;-81
2023/03/28 04:03:29;;;;;;;9.77;3.10;;;;;;;-1.91;100.00;97023.47;6235330;23;20518;-81
2023/03/28 04:05:56;;;;;;;9.77;3.50;;;;;;;-1.90;100.00;97025.16;6210451;23;20750;-81
2023/03/28 04:08:22;;;;;;;7.50;3.40;;;;;;;-1.93;100.00;97028.69;6210770;23;20451;-81
2023/03/28 04:11:02;;;;;;;6.80;3.40;;;;;;;-1.85;100.00;97030.09;6210308;23;20515;-81
2023/03/28 04:13:37;;;;;;;9.07;3.57;;;;;;;-1.91;100.00;97023.47;6186679;23;20004;-81
2023/03/28 04:16:12;;;;;;;9.67;4.17;;;;;;;-1.94;100.00;97023.59;6235197;22;20424;-81
2023/03/28 04:18:49;;;;;;;8.70;3.90;;;;;;;-1.98;100.00;97028.06;6210457;23;20408;-81
2023/03/28 04:21:24;;;;;;;9.43;4.47;;;;;;;-2.03;100.00;97021.41;6213355;23;20408;-81
2023/03/28 04:23:50;;;;;;;11.15;4.13;;;;;;;-2.01;100.00;97022.16;6216178;23;21033;-81
2023/03/28 04:26:28;;;;;;;11.90;5.27;;;;;;;-1.99;100.00;97030.69;6216397;23;20023;-81
2023/03/28 04:29:30;;;;;;;13.10;6.93;;;;;;;-2.02;100.00;97033.38;6214203;23;20427;-81
2023/03/28 04:32:15;;;;;;;14.45;7.63;;;;;;;-2.00;100.00;97036.75;6194623;23;20436;-82
2023/03/28 04:35:28;;;;;;;10.53;5.97;;;;;;;-2.05;100.00;97036.06;6231245;23;20008;-81
2023/03/28 04:37:56;;;;;;;8.43;4.90;;;;;;;-2.10;100.00;97038.84;6209987;23;20487;-82
2023/03/28 04:40:38;;;;;;;11.77;5.60;;;;;;;-2.03;100.00;97039.44;6209917;23;20740;-81
2023/03/28 04:43:28;;;;;;;12.97;5.93;;;;;;;-2.11;100.00;97037.19;6185907;23;20439;-82
2023/03/28 04:45:58;;;;;;;10.43;5.77;;;;;;;-2.05;100.00;97046.38;6209529;23;20422;-81
2023/03/28 04:48:26;;;;;;;10.77;4.93;;;;;;;-2.07;100.00;97048.19;6235370;23;20427;-82
2023/03/28 04:50:53;;;;;;;12.03;4.53;;;;;;;-2.14;100.00;97053.59;6210385;23;20482;-81
2023/03/28 04:53:19;;;;;;;9.50;5.87;;;;;;;-2.14;100.00;97053.59;6209072;23;20435;-81
2023/03/28 04:56:17;;;;;;;9.27;4.93;;;;;;;-2.15;100.00;97054.50;6177249;23;20492;-81
2023/03/28 04:58:43;;;;;;;10.20;5.33;;;;;;;-2.20;100.00;97059.00;6210765;23;20922;-82
2023/03/28 05:01:09;;;;;;;8.73;4.93;;;;;;;-2.19;100.00;97059.81;6209106;23;20910;-82
2023/03/28 05:04:03;;;;;;;11.70;5.13;;;;;;;-2.21;100.00;97065.06;6214159;23;20024;-81
2023/03/28 05:06:49;;;;;;;11.93;5.37;;;;;;;-2.27;100.00;97070.44;6185197;23;20412;-81
2023/03/28 05:09:17;;;;;;;12.50;5.67;;;;;;;-2.23;100.00;97068.59;6234270;23;20430;-82
2023/03/28 05:11:43;;;;;;;10.30;5.40;;;;;;;-2.23;100.00;97074.56;6208480;23;20474;-82
2023/03/28 05:14:09;;;;;;;14.00;6.20;;;;;;;-2.18;100.00;97085.53;6181285;23;20408;-81
2023/03/28 05:16:45;;;;;;;9.33;5.27;;;;;;;-2.15;100.00;97076.84;6230477;23;20474;-81
2023/03/28 05:19:43;;;;;;;10.60;6.27;;;;;;;-2.10;100.00;97085.25;6208049;23;20974;-81
2023/03/28 05:22:27;;;;;;;13.23;6.47;;;;;;;-1.99;100.00;97084.81;6235002;23;20442;-81
2023/03/28 05:28:48;;;;;;;13.13;5.50;;;;;;;-1.82;100.00;97087.53;6211420;23;20771;-82
2023/03/28 05:31:16;;;;;;;14.03;5.17;;;;;;;-1.60;100.00;97095.25;6251351;23;20733;-81
2023/03/28 05:33:44;;;;;;;10.13;5.00;;;;;;;-1.33;100.00;97100.97;6211084;23;20451;-81
2023/03/28 05:36:20;;;;;;;9.50;5.53;;;;;;;-1.21;100.00;97092.72;6209813;23;20419;-81
2023/03/28 05:38:48;;;;;;;18.37;10.30;;;;;;;0.47;100.00;97084.06;6185315;23;20412;-83
2023/03/28 05:41:16;;;;;;;21.47;11.90;;;;;;;2.25;100.00;97073.75;6236520;23;20016;-81
2023/03/28 05:43:47;;;;;;;12.80;6.50;;;;;;;1.30;100.00;97079.78;6236428;23;20490;-81
2023/03/28 05:46:45;;;;;;;11.87;5.80;;;;;;;0.68;100.00;97070.94;6208843;23;20012;-81
2023/03/28 05:49:11;;;;;;;10.77;6.07;;;;;;;0.52;100.00;97077.81;6209902;23;20514;-81
2023/03/28 05:51:36;;;;;;;13.67;5.20;;;;;;;0.33;100.00;97083.06;6233802;23;20414;-82
2023/03/28 05:54:02;;;;;;;14.03;6.97;;;;;;;0.65;100.00;97079.69;6207637;23;20427;-81
2023/03/28 05:56:31;;;;;;;14.90;6.63;;;;;;;0.78;100.00;97079.94;6183702;23;20016;-81
2023/03/28 05:58:57;;;;;;;14.53;6.20;;;;;;;0.70;100.00;97087.22;6209608;23;20451;-80
2023/03/28 06:01:26;;;;;;;15.83;6.33;;;;;;;0.75;100.00;97085.25;6208355;23;20415;-81
2023/03/28 06:04:04;;;;;;;12.33;4.73;;;;;;;1.13;100.00;97093.63;6209020;23;20443;-81
2023/03/28 06:06:34;;;;;;;10.07;3.47;;;;;;;0.83;100.00;97096.03;6209250;23;21195;-81
2023/03/28 06:09:01;;;;;;;8.17;4.00;;;;;;;1.23;100.00;97098.34;6209156;23;21228;-80
2023/03/28 06:11:30;;;;;;;10.07;4.17;;;;;;;1.71;100.00;97088.84;6191119;23;21091;-81
2023/03/28 06:14:30;;;;;;;10.77;4.13;;;;;;;1.67;100.00;97095.13;6235552;23;20412;-81
2023/03/28 06:16:58;;;;;;;6.40;3.37;;;;;;;1.48;100.00;97092.69;6234114;23;20507;-80
2023/03/28 06:19:27;;;;;;;14.43;4.97;;;;;;;2.18;100.00;97098.34;6209513;23;20408;-80
2023/03/28 06:21:55;;;;;;;10.83;4.60;;;;;;;2.34;100.00;97104.34;6183960;23;20412;-80
2023/03/28 06:24:20;;;;;;;9.67;3.70;;;;;;;2.66;100.00;97099.06;6209112;23;20419;-80
2023/03/28 06:26:46;;;;;;;7.70;3.90;;;;;;;3.11;100.00;97102.47;6209780;23;20450;-80
2023/03/28 06:29:18;;;;;;;9.70;4.93;;;;;;;2.95;100.00;97108.59;6208677;23;20016;-80
2023/03/28 06:31:45;;;;;;;11.53;3.80;;;;;;;3.44;100.00;97100.44;6183869;23;20411;-80
2023/03/28 06:34:11;;;;;;;9.33;3.30;;;;;;;2.84;100.00;97104.00;6209340;23;20023;-80
2023/03/28 06:36:48;;;;;;;7.80;3.43;;;;;;;3.47;100.00;97100.25;6187059;23;20012;-81
2023/03/28 06:39:14;;;;;;;8.40;4.00;;;;;;;3.21;100.00;97106.19;6229502;23;20325;-80
2023/03/28 06:41:40;;;;;;;12.67;3.90;;;;;;;3.71;100.00;97105.69;6203940;23;20793;-80
2023/03/28 06:44:06;;;;;;;9.50;4.20;;;;;;;3.90;100.00;97104.56;6230301;23;20023;-80
2023/03/28 06:46:55;;;;;;;13.00;4.10;;;;;;;4.59;100.00;97107.91;6213231;23;20027;-81
2023/03/28 06:49:21;;;;;;;10.07;4.10;;;;;;;4.47;100.00;97105.19;6234091;23;20019;-81
2023/03/28 06:52:22;;;;;;;6.90;4.17;;;;;;;4.48;100.00;97104.25;6178020;23;20036;-81
2023/03/28 06:54:50;;;;;;;6.93;3.70;;;;;;;4.35;100.00;97107.75;6196857;23;20105;-81
2023/03/28 06:57:15;;;;;;;8.77;3.80;;;;;;;4.78;100.00;97103.16;6208654;23;20407;-81
2023/03/28 06:59:42;;;;;;;9.30;3.53;;;;;;;4.93;100.00;97119.56;6208870;23;20016;-81
2023/03/28 07:02:14;;;;;;;9.23;3.90;;;;;;;5.19;100.00;97115.19;6209053;23;20012;-81
2023/03/28 07:04:41;;;;;;;8.83;3.90;;;;;;;5.83;100.00;97107.28;6209828;23;20094;-81
2023/03/28 07:07:08;;;;;;;6.30;3.00;;;;;;;5.55;100.00;97111.00;6237627;23;20008;-81
2023/03/28 07:09:34;;;;;;;7.83;3.73;;;;;;;5.10;100.00;97123.66;6186344;23;20099;-82
2023/03/28 07:12:06;;;;;;;7.60;3.90;;;;;;;4.90;100.00;97124.97;6216164;23;20012;-81
2023/03/28 07:14:41;;;;;;;6.67;3.70;;;;;;;5.92;100.00;97111.84;6210890;23;20354;-82
2023/03/28 07:17:07;;;;;;;8.87;3.87;;;;;;;5.79;100.00;97126.72;6209237;23;20324;-81
2023/03/28 07:19:33;;;;;;;7.13;4.00;;;;;;;5.96;100.00;97130.78;6210851;23;20062;-81
2023/03/28 07:21:59;;;;;;;9.50;4.07;;;;;;;6.46;100.00;97129.75;6235435;23;20013;-81
2023/03/28 07:24:24;;;;;;;8.57;4.53;;;;;;;6.77;100.00;97136.19;6210547;23;20012;-82
2023/03/28 07:27:20;;;;;;;7.00;3.70;;;;;;;7.19;100.00;97140.94;6186084;23;20039;-81
2023/03/28 07:29:45;;;;;;;9.00;4.17;;;;;;;7.19;100.00;97146.16;6185110;23;20012;-81
2023/03/28 07:32:11;;;;;;;8.70;3.63;;;;;;;6.94;100.00;97142.78;6209837;23;20016;-81
2023/03/28 07:34:37;;;;;;;9.03;3.83;;;;;;;8.27;100.00;97140.31;6235760;23;20416;-81
2023/03/28 07:37:04;;;;;;;12.83;6.30;;;;;;;8.71;100.00;97135.91;6210314;23;20022;-81
2023/03/28 07:39:49;;;;;;;13.97;6.97;;;;;;;8.01;100.00;97141.53;6235440;22;20484;-81
2023/03/28 07:42:19;;;;;;;9.80;4.67;;;;;;;8.55;100.00;97139.91;6233824;23;20005;-81
2023/03/28 07:44:45;;;;;;;10.33;5.40;;;;;;;8.89;100.00;97136.22;6210785;23;20023;-81
2023/03/28 07:47:11;;;;;;;9.63;3.83;;;;;;;7.84;100.00;97152.53;6210537;23;20016;-80
2023/03/28 07:49:36;;;;;;;9.00;4.17;;;;;;;8.27;100.00;97150.78;6235335;23;20012;-80
2023/03/28 07:52:03;;;;;;;8.87;4.37;;;;;;;9.41;100.00;97157.25;6209600;23;20076;-80
2023/03/28 07:54:31;;;;;;;8.93;4.33;;;;;;;9.28;100.00;97146.13;6239260;23;20032;-81
2023/03/28 07:56:58;;;;;;;7.70;3.97;;;;;;;10.29;100.00;97150.59;6236852;23;20019;-81
2023/03/28 07:59:41;;;;;;;9.27;3.50;;;;;;;10.29;100.00;97153.22;6232572;23;20086;-81
2023/03/28 08:02:11;;;;;;;8.90;3.90;;;;;;;10.39;100.00;97161.97;6235235;23;20029;-81
2023/03/28 08:04:39;;;;;;;11.17;3.60;;;;;;;11.26;100.00;97163.81;6209930;23;20024;-81
2023/03/28 08:07:08;;;;;;;8.80;3.90;;;;;;;10.61;100.00;97167.00;6210368;23;20032;-81
2023/03/28 08:09:35;;;;;;;9.23;3.87;;;;;;;10.73;100.00;97162.47;6234597;23;20012;-80
2023/03/28 08:12:15;;;;;;;7.77;3.33;;;;;;;11.25;100.00;97162.16;6209454;23;20128;-81
2023/03/28 08:14:41;;;;;;;8.10;3.10;;;;;;;11.95;100.00;97167.97;6210245;23;20103;-81
2023/03/28 08:17:08;;;;;;;9.27;3.17;;;;;;;11.37;100.00;97166.31;6184451;23;20019;-81
2023/03/28 08:19:35;;;;;;;9.20;3.30;;;;;;;10.92;100.00;97166.06;6209533;23;20020;-81
2023/03/28 08:22:16;;;;;;;13.07;2.80;;;;;;;11.23;100.00;97169.34;6210256;23;20020;-81
2023/03/28 08:24:47;;;;;;;11.23;2.50;;;;;;;11.35;100.00;97170.06;6209668;23;20020;-81
2023/03/28 08:27:18;;;;;;;7.33;2.10;;;;;;;11.64;100.00;97164.72;6209251;23;20095;-80
2023/03/28 08:29:46;;;;;;;5.77;2.20;;;;;;;11.15;100.00;97161.34;6206275;23;20015;-81
2023/03/28 08:32:13;;;;;;;5.40;2.23;;;;;;;10.45;100.00;97163.25;6206828;23;20016;-80
2023/03/28 08:34:39;;;;;;;6.83;1.63;;;;;;;11.94;100.00;97161.06;6209902;23;20018;-85
2023/03/28 08:37:12;;;;;;;5.57;1.65;;;;;;;12.38;99.53;97167.34;6210379;23;20008;-85
2023/03/28 08:39:41;;;;;;;7.30;2.03;;;;;;;11.68;94.43;97177.47;6209879;23;20321;-81
2023/03/28 08:42:14;;;;;;;7.77;1.97;;;;;;;12.42;91.94;97163.44;6234379;23;20690;-81
2023/03/28 08:44:58;;;;;;;5.43;1.50;;;;;;;12.20;90.63;97169.09;6185911;23;20458;-81
2023/03/28 08:47:26;;;;;;;5.87;1.43;;;;;;;11.71;87.00;97173.72;6187055;23;20044;-81
2023/03/28 08:50:00;;;;;;;9.13;1.90;;;;;;;11.34;91.83;97171.84;6185572;23;20444;-81
2023/03/28 08:52:27;;;;;;;6.53;2.03;;;;;;;12.24;86.35;97165.22;6211814;23;20099;-81
2023/03/28 08:55:02;;;;;;;6.83;1.53;;;;;;;12.02;93.43;97161.97;6209571;23;20401;-81
2023/03/28 08:57:31;;;;;;;5.43;1.70;;;;;;;13.12;85.66;97160.16;6185414;23;20830;-81
2023/03/28 09:00:13;;;;;;;7.47;1.87;;;;;;;13.14;80.70;97169.56;6210295;23;20844;-81
2023/03/28 09:02:41;;;;;;;5.60;1.92;;;;;;;13.74;73.53;97165.41;6209145;23;20036;-81
2023/03/28 09:05:27;;;;;;;7.10;1.90;;;;;;;11.04;84.91;97168.41;6234445;23;20044;-82
2023/03/28 09:11:12;;;;;;;8.67;1.80;;;;;;;10.68;92.83;97169.09;6209563;23;20095;-81
2023/03/28 09:13:58;;;;;;;7.93;1.70;;;;;;;10.19;93.97;97170.75;6184522;23;20115;-80
2023/03/28 09:16:53;;;;;;;5.13;1.40;;;;;;;11.40;88.98;97171.31;6234658;23;20022;-81
2023/03/28 09:19:26;;;;;;;5.47;1.20;;;;;;;10.71;89.76;97168.81;6107386;23;20733;-81
2023/03/28 09:22:26;;;;;;;5.23;2.13;;;;;;;12.92;82.77;97170.88;6184703;23;20012;-81
2023/03/28 09:25:13;;;;;;;5.37;1.20;;;;;;;12.18;78.78;97166.63;6209776;23;20031;-81
2023/03/28 09:27:52;;;;;;;7.33;1.50;;;;;;;10.79;83.27;97179.47;6184562;23;20027;-82
2023/03/28 09:30:41;;;;;;;5.63;1.67;;;;;;;11.74;85.46;97178.72;6209910;23;20043;-81
2023/03/28 09:33:17;;;;;;;5.70;1.80;;;;;;;12.56;79.63;97175.28;6209080;23;20095;-81
2023/03/28 09:35:45;;;;;;;5.43;1.47;;;;;;;12.06;77.92;97177.50;6185217;23;20016;-81
2023/03/28 09:38:37;;;;;;;5.63;1.47;;;;;;;11.48;73.06;97189.03;6213432;23;20059;-80
2023/03/28 09:41:10;;;;;;;4.07;1.10;;;;;;;9.58;83.50;97189.97;6239365;23;20016;-82
2023/03/28 09:43:49;;;;;;;4.53;0.97;;;;;;;10.96;78.80;97170.06;6209905;23;20044;-82
2023/03/28 09:46:45;;;;;;;3.47;1.20;;;;;;;10.54;82.32;97172.94;6231967;23;20020;-82
2023/03/28 09:49:22;;;;;;;5.87;1.77;;;;;;;11.97;77.60;97171.28;6210014;23;20020;-82
2023/03/28 09:51:55;;;;;;;6.10;1.83;;;;;;;12.66;72.45;97164.69;6208852;23;20016;-82
2023/03/28 09:54:32;;;;;;;6.57;2.50;;;;;;;12.20;66.44;97171.75;6181541;23;20522;-80
2023/03/28 09:57:03;;;;;;;6.03;1.40;;;;;;;12.47;76.61;97166.47;6235438;23;20066;-80
2023/03/28 09:59:41;;;;;;;4.57;1.10;;;;;;;10.01;84.37;97176.63;6209462;23;20013;-82
2023/03/28 10:02:23;;;;;;;2.97;0.90;;;;;;;9.98;80.28;97171.66;6185564;23;20012;-82
2023/03/28 10:04:51;;;;;;;5.67;1.40;;;;;;;12.39;69.18;97163.72;6184081;23;20021;-81
2023/03/28 10:07:41;;;;;;;4.33;1.17;;;;;;;12.31;65.13;97155.75;6235181;23;20507;-83
2023/03/28 10:10:20;;;;;;;5.23;1.20;;;;;;;11.62;75.78;97174.56;6211589;23;20019;-81
2023/03/28 10:12:56;;;;;;;5.40;1.30;;;;;;;10.41;74.59;97162.69;6208856;23;20011;-80
2023/03/28 10:15:45;;;;;;;4.88;1.40;;;;;;;9.97;79.98;97167.38;6209865;23;20238;-81
2023/03/28 10:18:30;;;;;;;5.87;2.07;;;;;;;11.42;71.71;97158.81;6210780;23;20028;-82
2023/03/28 10:21:31;;;;;;;4.47;1.57;;;;;;;12.53;68.74;97154.47;6178750;23;20459;-82
2023/03/28 10:24:14;;;;;;;6.30;1.80;;;;;;;12.63;65.37;97152.59;6234490;23;20044;-81
2023/03/28 10:26:43;;;;;;;5.50;1.98;;;;;;;13.42;58.97;97151.84;6235063;23;20463;-79
2023/03/28 10:29:12;;;;;;;4.93;1.57;;;;;;;13.64;55.11;97149.66;6210749;23;20028;-83
2023/03/28 10:31:45;;;;;;;4.37;1.30;;;;;;;12.85;65.92;97159.28;6247078;23;20020;-79
2023/03/28 10:34:33;;;;;;;4.43;0.90;;;;;;;13.09;60.03;97149.91;6231056;23;20074;-79
2023/03/28 10:37:02;;;;;;;6.67;1.10;;;;;;;13.10;55.05;97149.75;6234120;23;20028;-80
2023/03/28 10:40:00;;;;;;;7.13;2.60;;;;;;;13.11;54.67;97153.19;6209969;23;20012;-80
2023/03/28 10:42:50;;;;;;;3.47;1.10;;;;;;;11.94;60.74;97153.16;6210999;23;20020;-80
2023/03/28 10:45:49;;;;;;;4.43;1.30;;;;;;;11.36;68.44;97159.34;6204652;23;20086;-80
2023/03/28 10:48:28;;;;;;;7.73;1.13;;;;;;;10.87;66.58;97147.22;6187181;23;20008;-82
2023/03/28 10:51:02;;;;;;;5.57;1.73;;;;;;;9.72;73.80;97158.13;6235241;23;20043;-83
2023/03/28 10:53:38;;;;;;;6.30;1.40;;;;;;;9.11;75.23;97155.41;6234150;23;20068;-81
2023/03/28 10:56:32;;;;;;;4.40;1.00;;;;;;;10.70;68.69;97141.69;6187259;23;20040;-81
2023/03/28 10:59:26;;;;;;;5.03;1.17;;;;;;;11.13;62.38;97139.56;6186546;23;20103;-81
2023/03/28 11:02:04;;;;;;;5.23;1.50;;;;;;;12.57;60.11;97123.34;6185219;23;20020;-79
2023/03/28 11:04:58;;;;;;;6.80;1.27;;;;;;;11.74;59.67;97129.47;6184706;23;20055;-80
2023/03/28 11:07:24;;;;;;;;;;;;;;;12.44;55.23;97116.66;6184332;23;20043;-80
2023/03/28 11:10:26;;;;;;;5.10;1.90;;;;;;;13.25;57.93;97128.13;6185811;23;20355;-80
2023/03/28 11:13:47;;;;;;;4.27;1.27;;;;;;;12.59;58.57;97124.03;6187681;23;20009;-80
2023/03/28 11:16:19;;;;;;;5.23;1.77;;;;;;;13.20;55.82;97121.44;6148898;23;20062;-80
2023/03/28 11:19:45;;;;;;;2.97;1.20;;;;;;;14.09;56.65;97111.56;6209399;23;20013;-82
2023/03/28 11:22:20;;;;;;;;;;;;;;;14.08;44.11;97115.19;6188366;23;20588;-86
2023/03/28 11:25:06;;;;;;;4.63;1.30;;;;;;;11.90;51.93;97126.22;6240479;22;20842;-80
2023/03/28 11:28:53;;;;;;;6.03;1.50;;;;;;;12.33;52.73;97114.19;6213122;23;20017;-80
2023/03/28 11:31:31;;;;;;;4.75;1.67;;;;;;;10.93;59.75;97122.97;6186417;23;20040;-80
2023/03/28 11:34:08;;;;;;;4.13;1.20;;;;;;;11.14;57.49;97120.19;6184939;23;20014;-80
2023/03/28 11:36:57;;;;;;;3.73;1.20;;;;;;;9.55;56.71;97114.91;6210388;23;20021;-80
2023/03/28 11:39:43;;;;;;;3.43;0.90;;;;;;;10.50;55.82;97111.91;6209714;23;20347;-80
2023/03/28 11:42:43;;;;;;;3.20;1.10;;;;;;;12.44;53.84;97100.81;6212096;23;20043;-89
2023/03/28 11:45:46;;;;;;;5.23;1.33;;;;;;;13.00;68.31;97098.00;6212557;23;20012;-86
2023/03/28 11:48:27;;;;;;;4.33;1.27;;;;;;;12.05;54.24;97102.84;6188912;23;20016;-89
2023/03/28 11:51:36;;;;;;;6.00;1.27;;;;;;;10.48;55.70;97102.47;6215212;23;20016;-88
2023/03/28 11:54:15;;;;;;;5.63;1.20;;;;;;;10.65;64.68;97111.50;6242850;23;20095;-88
2023/03/28 11:57:14;;;;;;;11.13;1.20;;;;;;;10.64;58.21;97109.84;6213160;23;20506;-88
2023/03/28 11:59:52;;;;;;;5.63;1.77;;;;;;;10.77;59.26;97107.75;6213800;23;20513;-88
2023/03/28 12:02:40;;;;;;;10.47;3.87;;;;;;;9.96;60.66;97100.03;6188082;23;20036;-88
2023/03/28 12:05:06;;;;;;;8.00;2.37;;;;;;;10.92;56.50;97097.63;6239941;23;20047;-88
2023/03/28 12:07:47;;;;;;;8.50;3.70;;;;;;;10.21;59.20;97097.84;6243164;23;20407;-89
2023/03/28 12:10:38;;;;;;;4.50;1.40;;;;;;;10.47;59.67;97083.25;6203898;23;20000;-89
2023/03/28 12:13:31;;;;;;;4.93;1.00;;;;;;;11.77;51.62;97087.00;6220222;23;20017;-89
2023/03/28 12:16:35;;;;;;;4.57;1.17;;;;;;;11.31;50.08;97082.59;6212646;23;20046;-89
2023/03/28 12:19:09;;;;;;;4.47;1.23;;;;;;;11.47;50.46;97077.56;6210637;23;20020;-89
2023/03/28 12:21:59;;;;;;;4.53;1.67;;;;;;;11.98;54.13;97076.25;6213020;23;20016;-89